createdAt,value
2023-02-16T00:01:44.167Z,97.99
2023-02-16T00:03:45.611Z,98.01
2023-02-16T00:05:47.053Z,98.04
2023-02-16T00:07:48.891Z,98.05
2023-02-16T00:09:50.881Z,98.01
2023-02-16T00:11:52.696Z,98.03
2023-02-16T00:15:54.950Z,98.02
2023-02-16T00:17:56.041Z,98.04
2023-02-16T00:19:57.930Z,98.06
2023-02-16T00:21:59.791Z,98.07
2023-02-16T00:26:03.497Z,98.02
2023-02-16T00:28:04.760Z,98
2023-02-16T00:30:06.652Z,97.99
2023-02-16T00:32:08.293Z,97.99
2023-02-16T00:34:09.385Z,97.96
2023-02-16T00:36:11.198Z,97.92
2023-02-16T00:38:12.724Z,97.92
2023-02-16T00:40:14.514Z,97.93
2023-02-16T00:42:15.781Z,97.93
2023-02-16T00:44:17.381Z,97.94
2023-02-16T00:46:18.804Z,97.95
2023-02-16T00:48:20.153Z,97.92
2023-02-16T00:50:21.863Z,97.94
2023-02-16T00:52:23.912Z,97.94
2023-02-16T00:54:25.123Z,98.01
2023-02-16T00:56:27.147Z,97.99
2023-02-16T00:58:28.563Z,97.96
2023-02-16T01:00:30.231Z,97.95
2023-02-16T01:02:31.820Z,97.93
2023-02-16T01:03:15.798Z,97.91
2023-02-16T01:05:17.348Z,97.94
2023-02-16T01:09:20.782Z,97.93
2023-02-16T01:11:22.532Z,97.95
2023-02-16T01:13:23.674Z,97.94
2023-02-16T01:15:33.519Z,97.94
2023-02-16T01:19:27.980Z,97.98
2023-02-16T01:21:29.938Z,97.98
2023-02-16T01:23:31.270Z,97.94
2023-02-16T01:25:33.005Z,97.95
2023-02-16T01:27:34.481Z,97.98
2023-02-16T01:29:35.984Z,97.98
2023-02-16T01:31:37.498Z,97.97
2023-02-16T01:33:39.307Z,97.92
2023-02-16T01:35:41.012Z,97.95
2023-02-16T01:37:42.365Z,97.94
2023-02-16T01:39:44.126Z,97.97
2023-02-16T01:41:45.586Z,97.92
2023-02-16T01:43:47.503Z,97.92
2023-02-16T01:45:48.834Z,97.88
2023-02-16T01:47:50.530Z,97.81
2023-02-16T01:49:52.304Z,97.87
2023-02-16T01:51:54.169Z,97.85
2023-02-16T01:53:55.727Z,97.86
2023-02-16T01:55:57.354Z,97.84
2023-02-16T01:57:58.644Z,97.83
2023-02-16T02:02:01.596Z,97.84
2023-02-16T02:04:03.381Z,97.85
2023-02-16T02:06:05.043Z,97.87
2023-02-16T02:08:06.971Z,97.83
2023-02-16T02:10:08.962Z,97.81
2023-02-16T02:12:10.089Z,97.82
2023-02-16T02:14:11.391Z,97.87
2023-02-16T02:16:12.523Z,97.91
2023-02-16T02:18:13.853Z,97.89
2023-02-16T02:20:14.994Z,97.89
2023-02-16T02:22:16.455Z,97.88
2023-02-16T02:24:17.725Z,97.89
2023-02-16T02:26:19.560Z,97.88
2023-02-16T02:28:20.690Z,97.9
2023-02-16T02:30:22.502Z,97.86
2023-02-16T02:32:24.391Z,97.75
2023-02-16T02:34:26.089Z,97.76
2023-02-16T02:36:27.306Z,97.76
2023-02-16T02:38:29.373Z,97.77
2023-02-16T02:40:30.981Z,97.75
2023-02-16T02:44:33.308Z,97.72
2023-02-16T02:46:35.153Z,97.72
2023-02-16T02:48:36.994Z,97.66
2023-02-16T02:50:38.161Z,97.62
2023-02-16T02:52:39.704Z,97.63
2023-02-16T02:54:41.506Z,97.66
2023-02-16T02:56:42.613Z,97.66
2023-02-16T02:58:44.073Z,97.62
2023-02-16T03:00:45.352Z,97.63
2023-02-16T03:02:46.485Z,97.69
2023-02-16T03:04:47.921Z,97.66
2023-02-16T03:06:49.963Z,97.67
2023-02-16T03:08:51.862Z,97.61
2023-02-16T03:10:52.948Z,97.57
2023-02-16T03:12:54.055Z,97.56
2023-02-16T03:14:56.078Z,97.58
2023-02-16T03:16:57.368Z,97.59
2023-02-16T03:18:58.852Z,97.62
2023-02-16T03:20:59.951Z,97.61
2023-02-16T03:23:01.644Z,97.56
2023-02-16T03:27:04.365Z,97.59
2023-02-16T03:29:06.220Z,97.6
2023-02-16T03:31:08.335Z,97.53
2023-02-16T03:33:09.924Z,97.57
2023-02-16T03:35:11.780Z,97.53
2023-02-16T03:37:13.001Z,97.51
2023-02-16T03:39:14.398Z,97.55
2023-02-16T03:41:16.484Z,97.56
2023-02-16T03:43:18.164Z,97.51
2023-02-16T03:45:19.634Z,97.51
2023-02-16T03:47:21.173Z,97.54
2023-02-16T03:49:22.931Z,97.55
2023-02-16T03:51:24.958Z,97.52
2023-02-16T03:53:26.659Z,97.55
2023-02-16T03:55:28.037Z,97.55
2023-02-16T03:59:31.247Z,97.46
2023-02-16T04:01:32.437Z,97.48
2023-02-16T04:03:33.796Z,97.5
2023-02-16T04:05:35.468Z,97.49
2023-02-16T04:09:38.909Z,97.47
2023-02-16T04:11:40.962Z,97.47
2023-02-16T04:13:42.650Z,97.48
2023-02-16T04:15:44.686Z,97.44
2023-02-16T04:19:47.902Z,97.43
2023-02-16T04:21:49.839Z,97.45
2023-02-16T04:23:50.962Z,97.38
2023-02-16T04:25:52.434Z,97.36
2023-02-16T04:27:54.502Z,97.4
2023-02-16T04:29:55.814Z,97.38
2023-02-16T04:31:57.976Z,97.41
2023-02-16T04:33:59.279Z,97.4
2023-02-16T04:36:00.737Z,97.33
2023-02-16T04:38:02.729Z,97.31
2023-02-16T04:42:05.892Z,97.31
2023-02-16T04:44:07.254Z,97.35
2023-02-16T04:46:08.517Z,97.39
2023-02-16T04:48:10.414Z,97.32
2023-02-16T04:50:12.464Z,97.36
2023-02-16T04:52:13.821Z,97.4
2023-02-16T04:54:15.422Z,97.33
2023-02-16T04:56:17.465Z,97.33
2023-02-16T04:58:19.360Z,97.23
2023-02-16T05:00:21.047Z,97.25
2023-02-16T05:02:23.151Z,97.29
2023-02-16T05:04:24.468Z,97.29
2023-02-16T05:06:25.525Z,97.25
2023-02-16T05:08:27.484Z,97.18
2023-02-16T05:10:28.774Z,97.19
2023-02-16T05:12:30.037Z,97.2
2023-02-16T05:14:31.863Z,97.18
2023-02-16T05:16:33.034Z,97.19
2023-02-16T05:18:34.854Z,97.14
2023-02-16T05:20:36.768Z,97.11
2023-02-16T05:24:40.575Z,97.11
2023-02-16T05:26:42.166Z,97.11
2023-02-16T05:28:43.755Z,97.08
2023-02-16T05:30:44.965Z,97.06
2023-02-16T05:32:46.762Z,97.05
2023-02-16T05:34:48.034Z,97.07
2023-02-16T05:36:49.958Z,97.02
2023-02-16T05:38:51.282Z,97.12
2023-02-16T05:40:52.662Z,97.13
2023-02-16T05:42:53.762Z,97.12
2023-02-16T05:44:55.597Z,97.18
2023-02-16T05:46:56.752Z,97.26
2023-02-16T05:48:58.714Z,97.27
2023-02-16T05:51:00.282Z,97.24
2023-02-16T05:53:02.092Z,97.24
2023-02-16T05:55:04.056Z,97.18
2023-02-16T05:57:05.998Z,97.13
2023-02-16T05:59:08.084Z,97.12
2023-02-16T06:01:09.624Z,97.12
2023-02-16T06:03:11.637Z,97.09
2023-02-16T06:07:15.113Z,97.05
2023-02-16T06:09:16.179Z,97.02
2023-02-16T06:11:17.300Z,96.98
2023-02-16T06:13:19.345Z,97
2023-02-16T06:15:20.966Z,97
2023-02-16T06:17:22.158Z,97
2023-02-16T06:19:23.390Z,96.98
2023-02-16T06:21:24.910Z,96.99
2023-02-16T06:23:26.216Z,96.99
2023-02-16T06:25:27.615Z,96.96
2023-02-16T06:27:29.127Z,96.95
2023-02-16T06:29:30.323Z,96.94
2023-02-16T06:31:34.499Z,96.85
2023-02-16T06:33:34.082Z,96.85
2023-02-16T06:35:35.580Z,96.87
2023-02-16T06:37:37.673Z,96.85
2023-02-16T06:39:39.046Z,96.77
2023-02-16T06:41:40.725Z,96.82
2023-02-16T06:43:42.090Z,96.8
2023-02-16T06:45:44.066Z,96.74
2023-02-16T06:49:47.053Z,96.73
2023-02-16T06:51:48.455Z,96.75
2023-02-16T06:53:49.750Z,96.75
2023-02-16T06:55:51.787Z,96.78
2023-02-16T06:57:53.736Z,96.82
2023-02-16T06:59:55.672Z,96.83
2023-02-16T07:01:57.272Z,96.89
2023-02-16T07:03:59.069Z,96.87
2023-02-16T07:06:00.708Z,96.86
2023-02-16T07:08:02.501Z,96.87
2023-02-16T07:10:03.951Z,96.88
2023-02-16T07:12:05.387Z,96.84
2023-02-16T07:14:07.447Z,96.85
2023-02-16T07:16:09.434Z,96.86
2023-02-16T07:18:10.755Z,96.85
2023-02-16T07:20:11.945Z,96.83
2023-02-16T07:22:13.270Z,96.93
2023-02-16T07:24:14.579Z,96.88
2023-02-16T07:26:16.194Z,96.92
2023-02-16T07:28:17.598Z,97.04
2023-02-16T07:32:21.421Z,97.34
2023-02-16T07:34:23.450Z,97.71
2023-02-16T07:36:25.402Z,97.81
2023-02-16T07:38:26.900Z,97.97
2023-02-16T07:40:28.776Z,98.16
2023-02-16T07:42:30.721Z,98.28
2023-02-16T07:44:32.336Z,97.78
2023-02-16T07:46:33.782Z,96.75
2023-02-16T07:48:35.191Z,96.79
2023-02-16T07:49:19.107Z,96.91
2023-02-16T07:51:20.331Z,97.44
2023-02-16T07:53:22.116Z,97.1
2023-02-16T07:55:23.253Z,97.49
2023-02-16T07:59:26.484Z,97.69
2023-02-16T08:01:27.846Z,97.72
2023-02-16T08:03:29.600Z,97.46
2023-02-16T08:05:30.756Z,97.72
2023-02-16T08:09:33.735Z,97.18
2023-02-16T08:11:34.742Z,97.47
2023-02-16T08:13:36.931Z,97.48
2023-02-16T08:15:38.103Z,96.83
2023-02-16T08:17:39.162Z,96.9
2023-02-16T08:19:40.705Z,96.9
2023-02-16T08:21:43.271Z,96.68
2023-02-16T08:23:44.314Z,96.95
2023-02-16T08:25:46.216Z,96.09
2023-02-16T08:27:47.768Z,95.58
2023-02-16T08:29:49.137Z,96.25
2023-02-16T08:31:50.285Z,96.48
2023-02-16T08:33:51.763Z,96.43
2023-02-16T08:35:53.010Z,95.8
2023-02-16T08:37:54.228Z,95.35
2023-02-16T08:39:55.638Z,95.38
2023-02-16T08:41:57.411Z,95.67
2023-02-16T08:43:59.304Z,95.77
2023-02-16T08:46:00.900Z,96.01
2023-02-16T08:48:03.147Z,96.2
2023-02-16T08:52:05.583Z,96.45
2023-02-16T08:54:07.228Z,96.52
2023-02-16T08:56:08.382Z,96.43
2023-02-16T08:58:10.133Z,96.72
2023-02-16T09:00:11.162Z,96.64
2023-02-16T09:02:21.364Z,96.94
2023-02-16T09:04:14.161Z,96.8
2023-02-16T09:06:15.716Z,96.56
2023-02-16T09:08:16.749Z,96.1
2023-02-16T09:10:18.627Z,95.77
2023-02-16T09:12:19.600Z,95.79
2023-02-16T09:14:21.409Z,95.81
2023-02-16T09:16:23.020Z,96.35
2023-02-16T09:18:24.176Z,96.34
2023-02-16T09:20:25.173Z,95.82
2023-02-16T09:22:26.641Z,95.58
2023-02-16T09:24:28.058Z,95.57
2023-02-16T09:26:28.998Z,95.54
2023-02-16T09:28:30.245Z,96.19
2023-02-16T09:30:31.482Z,96.29
2023-02-16T09:32:33.106Z,95.98
2023-02-16T09:34:34.180Z,95.31
2023-02-16T09:36:35.563Z,92.35
2023-02-16T09:38:37.521Z,90.05
2023-02-16T09:40:39.476Z,91.2
2023-02-16T09:42:41.572Z,92.58
2023-02-16T09:44:43.146Z,91.56
2023-02-16T09:46:44.256Z,88.92
2023-02-16T09:50:53.647Z,83.99
2023-02-16T09:52:50.376Z,88.02
2023-02-16T09:54:50.571Z,86.72
2023-02-16T09:56:52.223Z,84.29
2023-02-16T09:58:53.615Z,81.07
2023-02-16T10:00:54.728Z,81.17
2023-02-16T10:02:56.454Z,82.09
2023-02-16T10:04:58.145Z,81.49
2023-02-16T10:06:59.479Z,82.29
2023-02-16T10:09:00.669Z,80.42
2023-02-16T10:11:02.171Z,78.35
2023-02-16T10:13:02.958Z,78.14
2023-02-16T10:15:03.975Z,78.48
2023-02-16T10:17:05.568Z,78.04
2023-02-16T10:19:07.020Z,76.23
2023-02-16T10:21:08.024Z,73.35
2023-02-16T10:23:09.616Z,73.27
2023-02-16T10:25:11.390Z,72.67
2023-02-16T10:27:12.800Z,70.61
2023-02-16T10:29:13.955Z,69.79
2023-02-16T10:33:16.915Z,69.09
2023-02-16T10:35:18.608Z,68.01
2023-02-16T10:37:19.668Z,69.02
2023-02-16T10:39:21.169Z,67.94
2023-02-16T10:41:22.058Z,67
2023-02-16T10:43:23.447Z,66.08
2023-02-16T10:45:26.956Z,67.29
2023-02-16T10:47:25.732Z,66.57
2023-02-16T10:49:26.888Z,67.91
2023-02-16T10:51:28.235Z,68.55
2023-02-16T10:53:29.398Z,67.43
2023-02-16T10:55:30.939Z,66.6
2023-02-16T10:57:32.154Z,66.23
2023-02-16T10:59:33.967Z,65.7
2023-02-16T11:01:35.803Z,66.02
2023-02-16T11:05:38.961Z,64.57
2023-02-16T11:07:41.424Z,65.46
2023-02-16T11:09:42.481Z,64.48
2023-02-16T11:11:43.673Z,65.77
2023-02-16T11:15:46.737Z,63.52
2023-02-16T11:17:48.154Z,64.53
2023-02-16T11:19:49.595Z,64.96
2023-02-16T11:21:51.294Z,62.92
2023-02-16T11:23:52.785Z,62.71
2023-02-16T11:25:53.980Z,61.71
2023-02-16T11:27:55.649Z,62.51
2023-02-16T11:29:57.137Z,62.82
2023-02-16T11:31:58.577Z,61.75
2023-02-16T11:33:59.940Z,60.19
2023-02-16T11:36:01.073Z,60.8
2023-02-16T11:38:02.736Z,60.66
2023-02-16T11:42:04.974Z,59.92
2023-02-16T11:44:05.887Z,59.04
2023-02-16T11:46:07.659Z,60.4
2023-02-16T11:48:09.030Z,59.94
2023-02-16T11:50:10.712Z,59.52
2023-02-16T11:52:11.694Z,58.9
2023-02-16T11:54:12.824Z,58.73
2023-02-16T11:56:14.617Z,59.08
2023-02-16T11:58:16.444Z,58.05
2023-02-16T12:00:17.724Z,59.35
2023-02-16T12:04:20.535Z,59.17
2023-02-16T12:06:22.056Z,58.98
2023-02-16T12:08:22.986Z,58.94
2023-02-16T12:10:24.161Z,58.72
2023-02-16T12:14:27.118Z,58.29
2023-02-16T12:16:28.407Z,58.91
2023-02-16T12:18:29.763Z,58.6
2023-02-16T12:20:31.001Z,58.71
2023-02-16T12:22:32.498Z,57.34
2023-02-16T12:24:33.970Z,57.64
2023-02-16T12:26:35.379Z,57.16
2023-02-16T12:28:36.906Z,57.51
2023-02-16T12:30:38.872Z,58.36
2023-02-16T12:32:40.000Z,57.31
2023-02-16T12:34:41.578Z,57.49
2023-02-16T12:36:42.676Z,56.06
2023-02-16T12:38:43.908Z,57.16
2023-02-16T12:40:44.765Z,55.68
2023-02-16T12:42:47.341Z,55.55
2023-02-16T12:44:48.721Z,56.69
2023-02-16T12:46:49.704Z,55.95
2023-02-16T12:48:50.860Z,56.28
2023-02-16T12:50:52.099Z,57.59
2023-02-16T12:52:53.651Z,57.82
2023-02-16T12:56:56.374Z,58.26
2023-02-16T12:58:58.230Z,58.37
2023-02-16T13:00:59.290Z,57.85
2023-02-16T13:03:01.108Z,58.9
2023-02-16T13:05:02.145Z,59.07
2023-02-16T13:07:03.478Z,57.56
2023-02-16T13:09:05.264Z,58.46
2023-02-16T13:11:07.394Z,57.68
2023-02-16T13:13:08.048Z,57.14
2023-02-16T13:15:09.585Z,56.35
2023-02-16T13:17:10.688Z,57.8
2023-02-16T13:19:12.892Z,57.44
2023-02-16T13:21:14.440Z,57.37
2023-02-16T13:23:15.353Z,57.65
2023-02-16T13:25:16.544Z,58.37
2023-02-16T13:29:19.351Z,58.68
2023-02-16T13:31:20.248Z,58.37
2023-02-16T13:33:22.006Z,58.57
2023-02-16T13:35:23.361Z,57.93
2023-02-16T13:39:25.689Z,58.32
2023-02-16T13:41:28.254Z,58.19
2023-02-16T13:43:30.041Z,57.82
2023-02-16T13:45:31.892Z,57.79
2023-02-16T13:47:33.463Z,57.21
2023-02-16T13:49:34.941Z,57.54
2023-02-16T13:51:36.722Z,57.76
2023-02-16T13:53:37.990Z,57.97
2023-02-16T13:55:39.208Z,58.04
2023-02-16T13:57:41.083Z,57.08
2023-02-16T13:59:42.375Z,56.88
2023-02-16T14:01:43.675Z,57.21
2023-02-16T14:03:44.857Z,56.33
2023-02-16T14:05:45.956Z,56.45
2023-02-16T14:07:47.650Z,56.03
2023-02-16T14:11:51.604Z,56.83
2023-02-16T14:13:53.384Z,57.24
2023-02-16T14:15:54.863Z,57.49
2023-02-16T14:17:55.885Z,58.1
2023-02-16T14:21:58.646Z,58
2023-02-16T14:24:00.404Z,58.43
2023-02-16T14:26:02.283Z,57.88
2023-02-16T14:28:03.654Z,58.55
2023-02-16T14:30:05.600Z,59.35
2023-02-16T14:32:06.497Z,58.74
2023-02-16T14:34:08.072Z,58.82
2023-02-16T14:36:52.780Z,59.35
2023-02-16T14:38:53.772Z,59.24
2023-02-16T14:40:54.988Z,59.47
2023-02-16T14:42:55.944Z,59.48
2023-02-16T14:44:57.701Z,59.62
2023-02-16T14:46:58.978Z,60.26
2023-02-16T14:49:00.374Z,60.33
2023-02-16T14:51:01.517Z,59.68
2023-02-16T14:53:03.368Z,59.72
2023-02-16T14:55:05.381Z,60.17
2023-02-16T14:57:05.715Z,60.05
2023-02-16T14:59:07.483Z,59.65
2023-02-16T15:01:09.197Z,60.59
2023-02-16T15:05:12.850Z,59.83
2023-02-16T15:07:14.667Z,60.3
2023-02-16T15:09:16.173Z,60.19
2023-02-16T15:11:17.721Z,60.13
2023-02-16T15:15:20.691Z,59.85
2023-02-16T15:17:21.621Z,60.54
2023-02-16T15:19:23.232Z,59.8
2023-02-16T15:21:24.330Z,60.13
2023-02-16T15:23:25.846Z,60.66
2023-02-16T15:25:27.560Z,61.04
2023-02-16T15:27:28.988Z,60.75
2023-02-16T15:29:30.282Z,60.99
2023-02-16T15:31:31.664Z,61.49
2023-02-16T15:33:32.928Z,61.55
2023-02-16T15:35:34.409Z,61.4
2023-02-16T15:37:36.219Z,61.3
2023-02-16T15:39:45.472Z,61.64
2023-02-16T15:41:38.903Z,61.31
2023-02-16T15:43:40.019Z,61.7
2023-02-16T15:45:41.411Z,62.52
2023-02-16T15:47:43.595Z,62.79
2023-02-16T15:49:44.320Z,62.76
2023-02-16T15:51:45.488Z,62.25
2023-02-16T15:53:46.790Z,62.4
2023-02-16T15:57:49.669Z,62.12
2023-02-16T15:59:51.419Z,62.4
2023-02-16T16:01:52.492Z,61.81
2023-02-16T16:03:53.639Z,62.05
2023-02-16T16:05:55.041Z,62.15
2023-02-16T16:07:56.852Z,62.19
2023-02-16T16:09:57.920Z,61.92
2023-02-16T16:11:59.613Z,61.57
2023-02-16T16:14:00.893Z,61.79
2023-02-16T16:16:02.222Z,61.8
2023-02-16T16:18:03.580Z,62.04
2023-02-16T16:20:04.721Z,61.93
2023-02-16T16:22:05.831Z,61.95
2023-02-16T16:24:06.785Z,62.11
2023-02-16T16:26:07.727Z,62.4
2023-02-16T16:28:08.740Z,62.38
2023-02-16T16:30:10.347Z,62.4
2023-02-16T16:32:11.945Z,62.46
2023-02-16T16:34:13.330Z,62.7
2023-02-16T16:36:14.550Z,63.08
2023-02-16T16:40:16.988Z,63.39
2023-02-16T16:42:18.626Z,63.3
2023-02-16T16:44:20.500Z,63.2
2023-02-16T16:46:22.168Z,62.72
2023-02-16T16:48:23.564Z,62.78
2023-02-16T16:50:24.526Z,63.08
2023-02-16T16:52:26.346Z,63.55
2023-02-16T16:54:27.453Z,64.7
2023-02-16T16:56:28.461Z,64.76
2023-02-16T16:58:29.438Z,64.71
2023-02-16T17:00:30.543Z,65
2023-02-16T17:02:31.715Z,64.87
2023-02-16T17:04:33.138Z,64.59
2023-02-16T17:06:34.094Z,64.77
2023-02-16T17:08:44.985Z,65.08
2023-02-16T17:10:37.312Z,65.17
2023-02-16T17:12:38.525Z,65.61
2023-02-16T17:14:40.089Z,66.13
2023-02-16T17:16:41.390Z,66.48
2023-02-16T17:18:43.063Z,66.71
2023-02-16T17:20:44.168Z,66.95
2023-02-16T17:22:45.506Z,66.6
2023-02-16T17:24:46.870Z,66.93
2023-02-16T17:26:47.872Z,67.04
2023-02-16T17:28:49.071Z,66.88
2023-02-16T17:30:50.283Z,66.83
2023-02-16T17:32:51.364Z,65.89
2023-02-16T17:34:52.366Z,65.75
2023-02-16T17:38:54.749Z,65.89
2023-02-16T17:40:56.386Z,66.56
2023-02-16T17:42:58.181Z,66.07
2023-02-16T17:44:59.719Z,64.81
2023-02-16T17:47:01.305Z,63.91
2023-02-16T17:49:02.558Z,63.86
2023-02-16T17:51:03.729Z,63.82
2023-02-16T17:53:05.284Z,64.36
2023-02-16T17:55:06.841Z,64.32
2023-02-16T17:57:07.566Z,64.7
2023-02-16T17:59:09.003Z,65.27
2023-02-16T18:01:10.357Z,65.36
2023-02-16T18:03:11.454Z,64.91
2023-02-16T18:05:12.472Z,64.86
2023-02-16T18:07:13.579Z,64.19
2023-02-16T18:11:16.710Z,64.31
2023-02-16T18:13:18.309Z,64.81
2023-02-16T18:15:19.274Z,64.23
2023-02-16T18:17:20.609Z,64.26
2023-02-16T18:21:23.571Z,64.02
2023-02-16T18:23:24.736Z,64.2
2023-02-16T18:25:26.093Z,64.43
2023-02-16T18:27:29.163Z,64.34
2023-02-16T18:29:28.760Z,64.22
2023-02-16T18:31:29.991Z,64.21
2023-02-16T18:33:31.788Z,64.15
2023-02-16T18:35:33.025Z,64.19
2023-02-16T18:37:34.713Z,63.59
2023-02-16T18:39:35.948Z,63.8
2023-02-16T18:41:37.344Z,63.79
2023-02-16T18:43:38.682Z,63.76
2023-02-16T18:45:40.132Z,63.35
2023-02-16T18:47:41.572Z,63.16
2023-02-16T18:49:42.787Z,63.44
2023-02-16T18:51:44.631Z,63.23
2023-02-16T18:53:45.605Z,63.22
2023-02-16T18:55:47.332Z,63.27
2023-02-16T18:57:48.757Z,63.68
2023-02-16T18:59:49.915Z,63.3
2023-02-16T19:01:51.200Z,63.14
2023-02-16T19:03:52.683Z,63.12
2023-02-16T19:05:53.911Z,63.28
2023-02-16T19:09:56.166Z,63.45
2023-02-16T19:11:57.563Z,63.35
2023-02-16T19:13:58.704Z,63.46
2023-02-16T19:16:00.163Z,63.55
2023-02-16T19:20:02.404Z,63.65
2023-02-16T19:22:03.508Z,64.18
2023-02-16T19:24:04.432Z,64.76
2023-02-16T19:26:05.862Z,64.88
2023-02-16T19:28:06.752Z,64.1
2023-02-16T19:30:08.208Z,64.29
2023-02-16T19:32:09.193Z,64.33
2023-02-16T19:34:10.505Z,64.06
2023-02-16T19:36:11.669Z,63.43
2023-02-16T19:38:13.293Z,63.38
2023-02-16T19:40:14.601Z,63.39
2023-02-16T19:42:15.991Z,63.49
2023-02-16T19:44:17.050Z,63.68
2023-02-16T19:46:18.574Z,64.08
2023-02-16T19:48:19.921Z,64.44
2023-02-16T19:50:21.856Z,64.25
2023-02-16T19:52:23.554Z,64.15
2023-02-16T19:54:24.459Z,64.26
2023-02-16T19:56:26.094Z,64.19
2023-02-16T19:58:27.603Z,64.19
2023-02-16T20:02:30.292Z,65.3
2023-02-16T20:04:31.521Z,64.34
2023-02-16T20:06:33.274Z,64.15
2023-02-16T20:08:34.769Z,64.56
2023-02-16T20:10:36.088Z,64.63
2023-02-16T20:12:37.174Z,64.84
2023-02-16T20:14:38.826Z,65.25
2023-02-16T20:16:40.555Z,65.39
2023-02-16T20:18:41.884Z,65.34
2023-02-16T20:20:42.936Z,65.47
2023-02-16T20:22:44.497Z,65.37
2023-02-16T20:24:46.238Z,65.09
2023-02-16T20:26:47.947Z,65.91
2023-02-16T20:28:49.283Z,65.94
2023-02-16T20:30:50.866Z,66.03
2023-02-16T20:34:53.422Z,65.89
2023-02-16T20:36:54.462Z,66.13
2023-02-16T20:38:56.152Z,66.17
2023-02-16T20:40:57.605Z,66.79
2023-02-16T20:45:01.113Z,66.69
2023-02-16T20:47:02.554Z,66.3
2023-02-16T20:49:03.746Z,66.02
2023-02-16T20:51:05.105Z,66.42
2023-02-16T20:53:06.500Z,66.69
2023-02-16T20:55:07.642Z,66.72
2023-02-16T20:57:18.212Z,66.93
2023-02-16T20:59:10.707Z,67.28
2023-02-16T21:01:12.018Z,67.38
2023-02-16T21:03:13.345Z,67.49
2023-02-16T21:05:14.364Z,67.32
2023-02-16T21:07:15.283Z,67.25
2023-02-16T21:09:17.040Z,67.29
2023-02-16T21:11:18.363Z,67.55
2023-02-16T21:13:19.955Z,67.78
2023-02-16T21:15:20.951Z,67.74
2023-02-16T21:17:22.291Z,67.84
2023-02-16T21:19:33.040Z,68.08
2023-02-16T21:22:17.990Z,67.84
2023-02-16T21:24:18.995Z,67.81
2023-02-16T21:26:20.629Z,67.84
2023-02-16T21:28:21.983Z,67.96
2023-02-16T21:30:22.954Z,67.48
2023-02-16T21:32:23.987Z,67.64
2023-02-16T21:34:25.578Z,68.17
2023-02-16T21:36:27.357Z,68.15
2023-02-16T21:38:29.078Z,67.66
2023-02-16T21:40:30.238Z,67.96
2023-02-16T21:42:32.054Z,67.66
2023-02-16T21:44:33.207Z,67.57
2023-02-16T21:46:34.895Z,67.52
2023-02-16T21:48:36.417Z,67.43
2023-02-16T21:50:37.473Z,67.38
2023-02-16T21:54:40.687Z,67.29
2023-02-16T21:56:42.002Z,67.57
2023-02-16T21:58:43.355Z,67.5
2023-02-16T22:00:44.306Z,67.71
2023-02-16T22:02:45.728Z,67.49
2023-02-16T22:04:47.219Z,67.8
2023-02-16T22:06:49.006Z,67.79
2023-02-16T22:08:50.255Z,67.61
2023-02-16T22:10:51.532Z,67.66
2023-02-16T22:12:52.717Z,68.02
2023-02-16T22:14:54.569Z,67.09
2023-02-16T22:16:56.437Z,67.38
2023-02-16T22:18:57.869Z,67.58
2023-02-16T22:20:59.729Z,67.82
2023-02-16T22:23:00.828Z,68.24
2023-02-16T22:27:03.191Z,68.7
2023-02-16T22:29:04.841Z,68.32
2023-02-16T22:31:06.753Z,68.25
2023-02-16T22:33:07.759Z,68.36
2023-02-16T22:35:09.262Z,67.91
2023-02-16T22:37:10.333Z,67.98
2023-02-16T22:39:12.041Z,67.37
2023-02-16T22:41:13.523Z,67.7
2023-02-16T22:43:15.042Z,68.34
2023-02-16T22:45:16.414Z,68.14
2023-02-16T22:47:18.046Z,67.84
2023-02-16T22:49:19.582Z,67.67
2023-02-16T22:51:21.098Z,67.32
2023-02-16T22:53:22.836Z,66.97
2023-02-16T22:55:24.214Z,67.17
2023-02-16T22:57:25.192Z,67.21
2023-02-16T22:59:26.423Z,67.41
2023-02-16T23:01:27.647Z,67.1
2023-02-16T23:03:28.889Z,67.27
2023-02-16T23:05:30.747Z,66.85
2023-02-16T23:07:31.994Z,67.2
2023-02-16T23:09:32.970Z,67.18
2023-02-16T23:11:34.515Z,66.79
2023-02-16T23:13:35.825Z,67.27
2023-02-16T23:15:37.331Z,67.34
2023-02-16T23:17:38.569Z,67.4
2023-02-16T23:19:39.763Z,67.31
2023-02-16T23:21:41.673Z,67.24
2023-02-16T23:23:42.772Z,67.3
2023-02-16T23:25:43.920Z,67.42
2023-02-16T23:27:45.199Z,67.55
2023-02-16T23:29:46.639Z,67.2
2023-02-16T23:31:48.297Z,66.74
2023-02-16T23:35:51.223Z,67.1
2023-02-16T23:37:53.036Z,66.52
2023-02-16T23:39:54.837Z,67.18
2023-02-16T23:41:56.595Z,67.29
2023-02-16T23:43:58.968Z,67
2023-02-16T23:45:59.129Z,67.08
2023-02-16T23:48:00.373Z,66.95
2023-02-16T23:50:01.458Z,67.11
2023-02-16T23:52:02.777Z,67.07
2023-02-16T23:54:04.044Z,66.92
2023-02-16T23:56:05.525Z,66.32
2023-02-16T23:58:06.663Z,67
